Time;durP1;ratioP1;P1;durP2;ratioP2;P2;SDS_P1;SDS_P2;PMS_P1;PMS_P2;Temp;Humidity;BMP_temperature;BMP_pressure;BME280_temperature;BME280_humidity;BME280_pressure;Samples;Min_cycle;Max_cycle;Signal;HPM_P1;HPM_P2
2022/02/01 00:00:18;;;;;;;11.55;2.05;;;5.10;81.70;;;;;;5038250;28;20100;-68
2022/02/01 00:02:49;;;;;;;13.05;3.63;;;5.00;81.70;;;;;;5030358;28;20040;-68
2022/02/01 00:08:31;;;;;;;16.98;2.63;;;5.00;81.70;;;;;;4967123;28;20146;-68
2022/02/01 00:11:10;;;;;;;14.18;2.20;;;5.00;81.80;;;;;;4969859;28;20478;-68
2022/02/01 00:19:04;;;;;;;10.95;2.33;;;5.00;81.90;;;;;;5010826;28;20500;-68
2022/02/01 00:38:02;;;;;;;15.38;2.83;;;5.00;81.80;;;;;;5011189;28;20165;-68
2022/02/01 00:40:28;;;;;;;19.92;2.55;;;5.00;81.90;;;;;;5016916;28;20030;-68
2022/02/01 00:42:55;;;;;;;14.88;3.65;;;5.00;82.00;;;;;;5022536;28;20034;-68
2022/02/01 00:45:21;;;;;;;18.10;2.22;;;4.90;82.00;;;;;;5010412;28;20481;-68
2022/02/01 00:47:47;;;;;;;12.18;2.53;;;4.90;81.90;;;;;;5008939;28;20093;-68
2022/02/01 00:50:15;;;;;;;14.55;2.33;;;5.00;82.00;;;;;;5019281;28;20053;-68
2022/02/01 00:52:41;;;;;;;17.20;2.90;;;5.00;81.90;;;;;;5023998;28;20459;-68
2022/02/01 00:55:08;;;;;;;15.27;2.40;;;5.00;81.90;;;;;;5008765;28;20132;-68
2022/02/01 00:57:34;;;;;;;15.73;2.60;;;5.00;81.90;;;;;;5024358;28;20444;-68
2022/02/01 01:00:00;;;;;;;15.80;3.30;;;5.00;81.90;;;;;;5013245;28;20038;-68
2022/02/01 01:02:25;;;;;;;15.52;2.22;;;5.00;81.90;;;;;;5041595;28;20034;-68
2022/02/01 01:04:51;;;;;;;14.32;2.80;;;5.00;82.00;;;;;;5041810;28;20026;-68
2022/02/01 01:07:17;;;;;;;13.55;2.58;;;5.00;82.00;;;;;;5022036;28;20114;-67
2022/02/01 01:09:43;;;;;;;20.95;2.88;;;5.00;82.50;;;;;;5018586;28;20396;-67
2022/02/01 01:12:09;;;;;;;11.10;2.25;;;5.00;81.80;;;;;;5019224;28;20572;-67
2022/02/01 01:14:58;;;;;;;9.57;2.40;;;5.00;81.70;;;;;;5030366;28;20030;-67
2022/02/01 01:44:11;;;;;;;16.52;2.70;;;5.00;81.80;;;;;;5010466;28;20096;-68
2022/02/01 01:54:50;;;;;;;12.73;2.15;;;5.00;81.70;;;;;;5011184;28;20036;-68
2022/02/01 01:57:16;;;;;;;13.73;3.08;;;5.00;81.80;;;;;;5009656;28;20026;-68
2022/02/01 01:59:42;;;;;;;15.25;2.60;;;4.90;81.90;;;;;;5010816;28;20115;-68
2022/02/01 02:02:08;;;;;;;13.52;2.45;;;5.00;82.00;;;;;;5010978;28;20036;-68
2022/02/01 02:04:33;;;;;;;12.00;2.20;;;5.00;82.00;;;;;;5009745;28;20101;-68
2022/02/01 02:06:59;;;;;;;11.80;1.90;;;5.00;81.80;;;;;;5040254;28;20044;-68
2022/02/01 02:09:25;;;;;;;16.23;2.50;;;5.00;81.90;;;;;;5017058;28;20065;-68
2022/02/01 02:12:08;;;;;;;19.35;3.03;;;5.00;81.80;;;;;;5013310;28;20037;-68
2022/02/01 02:14:41;;;;;;;11.27;1.83;;;5.00;81.80;;;;;;5008976;28;20109;-68
2022/02/01 02:17:06;;;;;;;;;;;5.00;81.70;;;;;;5009109;28;20033;-68
2022/02/01 02:19:32;;;;;;;16.10;2.28;;;5.00;81.80;;;;;;5012079;28;20383;-68
2022/02/01 02:22:01;;;;;;;14.13;2.15;;;5.00;81.80;;;;;;5019396;28;20072;-68
2022/02/01 02:24:33;;;;;;;14.52;2.20;;;4.90;81.80;;;;;;5012883;28;20042;-68
2022/02/01 02:27:00;;;;;;;11.38;2.13;;;5.00;81.90;;;;;;5017756;28;20030;-68
2022/02/01 02:29:26;;;;;;;9.80;1.98;;;5.00;81.90;;;;;;4999532;28;20053;-68
2022/02/01 02:31:52;;;;;;;13.10;2.13;;;5.00;81.90;;;;;;5040046;28;20038;-67
2022/02/01 02:34:19;;;;;;;15.73;3.40;;;5.00;81.80;;;;;;5008642;28;20026;-67
2022/02/01 02:36:52;;;;;;;13.52;2.08;;;5.00;81.70;;;;;;5009422;28;20040;-67
2022/02/01 02:42:08;;;;;;;18.83;4.47;;;5.10;81.70;;;;;;5017671;28;20105;-68
2022/02/01 02:47:15;;;;;;;10.77;1.70;;;5.10;81.50;;;;;;5022075;28;20452;-68
2022/02/01 02:49:40;;;;;;;12.27;2.17;;;5.10;81.40;;;;;;5029120;28;20025;-67
2022/02/01 02:52:06;;;;;;;8.35;1.60;;;5.10;81.40;;;;;;5029263;28;20042;-67
2022/02/01 02:54:32;;;;;;;10.65;1.80;;;5.10;81.40;;;;;;5024519;28;20038;-67
2022/02/01 02:57:01;;;;;;;9.63;2.10;;;5.10;81.20;;;;;;5012104;28;20500;-67
2022/02/01 02:59:28;;;;;;;17.77;2.33;;;5.10;81.00;;;;;;5012606;28;20033;-68
2022/02/01 03:01:54;;;;;;;14.98;2.17;;;5.10;80.70;;;;;;5016140;28;20413;-68
2022/02/01 03:04:23;;;;;;;10.93;1.90;;;5.10;80.80;;;;;;5014756;28;20112;-68
2022/02/01 03:06:49;;;;;;;11.07;1.80;;;5.10;80.80;;;;;;5021278;28;20049;-68
2022/02/01 03:09:16;;;;;;;8.98;1.60;;;5.10;80.70;;;;;;5011161;28;20022;-68
2022/02/01 03:11:42;;;;;;;15.10;1.95;;;5.10;80.70;;;;;;5032137;28;20109;-68
2022/02/01 03:14:41;;;;;;;9.48;1.92;;;5.10;80.70;;;;;;5032078;28;20087;-68
2022/02/01 03:17:26;;;;;;;7.68;1.35;;;5.10;80.80;;;;;;5030567;28;20037;-67
2022/02/01 03:19:56;;;;;;;29.90;2.88;;;5.00;80.70;;;;;;5031632;28;20053;-68
2022/02/01 03:22:32;;;;;;;10.63;1.92;;;5.00;80.60;;;;;;5023863;28;20053;-68
2022/02/01 03:25:01;;;;;;;13.75;2.05;;;5.00;80.70;;;;;;5013993;28;20029;-68
2022/02/01 03:27:27;;;;;;;8.65;1.45;;;5.00;80.80;;;;;;5016819;28;20509;-68
2022/02/01 03:29:53;;;;;;;11.93;1.70;;;5.00;80.80;;;;;;5022113;28;20037;-68
2022/02/01 03:32:20;;;;;;;11.30;1.60;;;5.00;80.90;;;;;;5013551;28;20523;-67
2022/02/01 03:34:47;;;;;;;11.80;1.73;;;5.00;80.90;;;;;;5015690;28;20473;-67
2022/02/01 03:37:13;;;;;;;12.07;1.92;;;5.00;80.90;;;;;;5029471;28;20057;-67
2022/02/01 03:39:39;;;;;;;11.13;1.77;;;5.00;81.00;;;;;;5021692;28;20064;-67
2022/02/01 03:42:05;;;;;;;12.60;2.10;;;5.00;81.00;;;;;;5028658;28;20030;-67
2022/02/01 03:44:32;;;;;;;11.27;1.95;;;5.10;81.20;;;;;;5030110;28;20046;-67
2022/02/01 03:47:07;;;;;;;14.15;1.80;;;5.10;81.20;;;;;;5027660;28;20034;-67
2022/02/01 03:49:35;;;;;;;13.73;1.92;;;5.10;81.20;;;;;;5029539;28;20033;-67
2022/02/01 03:52:03;;;;;;;18.70;2.50;;;5.10;81.20;;;;;;5014878;28;20190;-67
2022/02/01 03:54:30;;;;;;;11.35;1.90;;;5.10;81.30;;;;;;5018815;28;20400;-67
2022/02/01 03:56:56;;;;;;;9.02;1.60;;;5.10;81.30;;;;;;5020042;28;20061;-67
2022/02/01 03:59:23;;;;;;;12.75;2.08;;;5.10;81.30;;;;;;5011139;28;20033;-67
2022/02/01 04:01:55;;;;;;;10.32;1.90;;;5.20;81.40;;;;;;5028515;28;20571;-67
2022/02/01 04:04:22;;;;;;;7.95;1.30;;;5.20;81.50;;;;;;5034036;28;20420;-67
2022/02/01 04:06:49;;;;;;;8.20;1.70;;;5.20;81.50;;;;;;5015604;28;20032;-67
2022/02/01 04:09:14;;;;;;;15.15;2.42;;;5.20;81.50;;;;;;5018471;28;20048;-67
2022/02/01 04:11:40;;;;;;;17.75;1.75;;;5.20;81.60;;;;;;5010144;28;20084;-67
2022/02/01 04:14:06;;;;;;;11.73;1.80;;;5.20;81.60;;;;;;5018351;28;20432;-67
2022/02/01 04:16:32;;;;;;;13.45;2.00;;;5.20;81.70;;;;;;5018934;28;20029;-67
2022/02/01 04:19:01;;;;;;;14.85;2.42;;;5.20;81.70;;;;;;5028802;28;20480;-67
2022/02/01 04:21:27;;;;;;;17.30;2.17;;;5.20;81.80;;;;;;5029182;28;20579;-67
2022/02/01 04:23:53;;;;;;;10.70;2.40;;;5.20;81.90;;;;;;5028989;28;20141;-67
2022/02/01 04:26:18;;;;;;;13.88;2.08;;;5.20;82.00;;;;;;5023182;28;20026;-67
2022/02/01 04:28:44;;;;;;;9.13;1.83;;;5.20;82.10;;;;;;5028844;28;20025;-67
2022/02/01 04:31:09;;;;;;;17.73;2.38;;;5.10;82.20;;;;;;5021814;28;20034;-67
2022/02/01 04:33:35;;;;;;;12.43;1.90;;;5.10;82.20;;;;;;5025487;28;20170;-67
2022/02/01 04:36:02;;;;;;;19.27;2.30;;;5.10;82.30;;;;;;5010608;28;20378;-67
2022/02/01 04:38:27;;;;;;;10.35;2.00;;;5.10;82.40;;;;;;5042215;28;20065;-67
2022/02/01 04:40:54;;;;;;;20.27;3.58;;;5.10;82.50;;;;;;5025890;28;20072;-68
2022/02/01 04:43:21;;;;;;;11.48;2.22;;;5.10;82.50;;;;;;5010759;28;20030;-67
2022/02/01 04:45:47;;;;;;;15.43;1.92;;;5.10;82.60;;;;;;5010769;28;20377;-68
2022/02/01 04:48:13;;;;;;;12.82;2.17;;;5.10;82.50;;;;;;5010063;28;20030;-67
2022/02/01 04:50:39;;;;;;;16.00;2.03;;;5.10;82.60;;;;;;5016780;28;20028;-67
2022/02/01 04:53:05;;;;;;;10.70;2.08;;;5.10;82.60;;;;;;5026570;28;20061;-67
2022/02/01 04:56:16;;;;;;;9.32;2.10;;;5.10;82.60;;;;;;5008921;28;20064;-67
2022/02/01 04:58:17;;;;;;;14.45;2.42;;;5.10;82.70;;;;;;5016830;28;20045;-67
2022/02/01 05:00:42;;;;;;;8.38;2.10;;;5.10;82.70;;;;;;5014132;28;20044;-67
2022/02/01 05:03:08;;;;;;;9.20;2.00;;;5.10;82.80;;;;;;5008398;28;20030;-67
2022/02/01 05:05:34;;;;;;;11.88;2.13;;;5.10;82.90;;;;;;5009714;28;20030;-67
2022/02/01 05:08:07;;;;;;;14.65;3.45;;;5.00;83.10;;;;;;5041635;28;20034;-67
2022/02/01 05:10:33;;;;;;;12.20;2.47;;;5.00;83.10;;;;;;5010092;28;20030;-67
2022/02/01 05:15:45;;;;;;;11.07;2.42;;;5.00;83.20;;;;;;5009008;28;20417;-67
2022/02/01 05:18:16;;;;;;;11.45;2.25;;;5.00;83.30;;;;;;5009555;28;20038;-68
2022/02/01 05:20:51;;;;;;;13.30;2.50;;;5.00;83.40;;;;;;5007940;28;20596;-68
2022/02/01 05:23:18;;;;;;;17.05;2.50;;;4.90;83.50;;;;;;5041053;28;20109;-67
2022/02/01 05:25:44;;;;;;;11.00;2.13;;;4.90;83.60;;;;;;5009239;28;20025;-68
2022/02/01 05:28:10;;;;;;;8.88;2.33;;;4.90;83.70;;;;;;5041111;28;20069;-68
2022/02/01 05:30:36;;;;;;;14.27;2.00;;;4.90;84.10;;;;;;5009519;28;20053;-68
2022/02/01 05:33:02;;;;;;;9.77;2.13;;;4.90;83.90;;;;;;5009396;28;20092;-68
2022/02/01 05:35:28;;;;;;;19.85;3.67;;;4.90;84.10;;;;;;5009100;28;20029;-67
2022/02/01 05:37:54;;;;;;;19.30;2.60;;;4.90;84.10;;;;;;5009605;28;20029;-67
2022/02/01 05:40:20;;;;;;;10.18;3.05;;;4.90;84.10;;;;;;5019309;28;20034;-67
2022/02/01 05:43:12;;;;;;;17.75;3.65;;;4.90;84.20;;;;;;5028622;28;20034;-67
2022/02/01 05:45:33;;;;;;;15.60;2.50;;;4.90;84.30;;;;;;5019546;28;20573;-68
2022/02/01 05:48:02;;;;;;;13.25;2.65;;;4.90;84.50;;;;;;5011080;28;20105;-68
2022/02/01 05:50:29;;;;;;;15.60;2.63;;;4.90;84.60;;;;;;5029428;28;20113;-67
2022/02/01 05:52:56;;;;;;;12.02;2.20;;;4.90;84.60;;;;;;5027663;28;20112;-68
2022/02/01 05:55:22;;;;;;;13.55;2.53;;;4.90;84.70;;;;;;5023428;28;20124;-67
2022/02/01 05:57:47;;;;;;;12.93;2.47;;;4.90;84.80;;;;;;5009745;28;20108;-67
2022/02/01 06:00:15;;;;;;;11.48;1.98;;;4.90;84.90;;;;;;5018950;28;20033;-68
2022/02/01 06:02:41;;;;;;;12.55;3.40;;;4.90;85.00;;;;;;5010439;28;20038;-67
2022/02/01 06:05:07;;;;;;;20.30;3.35;;;4.90;85.10;;;;;;5009377;28;20080;-68
2022/02/01 06:07:33;;;;;;;15.00;2.90;;;4.90;85.20;;;;;;5020076;28;20511;-67
2022/02/01 06:09:59;;;;;;;12.10;2.65;;;5.00;85.30;;;;;;5020858;28;20030;-68
2022/02/01 06:12:24;;;;;;;13.40;2.20;;;5.00;85.30;;;;;;5010752;28;20022;-67
2022/02/01 06:14:50;;;;;;;13.32;2.85;;;5.00;85.30;;;;;;5010747;28;20069;-68
2022/02/01 06:17:15;;;;;;;12.98;3.22;;;5.00;85.30;;;;;;5019628;28;20068;-68
2022/02/01 06:19:41;;;;;;;13.05;3.00;;;5.00;85.40;;;;;;5025614;28;20112;-68
2022/02/01 06:22:07;;;;;;;13.52;2.90;;;5.00;85.40;;;;;;5027758;28;20029;-68
2022/02/01 06:24:33;;;;;;;18.10;3.92;;;5.00;85.40;;;;;;5013977;28;20065;-67
2022/02/01 06:26:59;;;;;;;15.15;3.30;;;5.00;85.50;;;;;;5028796;28;20121;-67
2022/02/01 06:29:25;;;;;;;17.60;2.72;;;5.00;85.60;;;;;;5012480;28;20093;-67
2022/02/01 06:31:51;;;;;;;14.32;2.78;;;5.10;85.60;;;;;;5025888;28;20053;-68
2022/02/01 06:34:16;;;;;;;18.70;2.90;;;5.10;85.60;;;;;;5045260;28;20029;-68
2022/02/01 06:36:42;;;;;;;17.88;2.70;;;5.10;85.60;;;;;;5014014;28;20038;-68
2022/02/01 06:39:09;;;;;;;20.15;3.45;;;5.10;85.70;;;;;;5012561;28;20566;-67
2022/02/01 06:41:35;;;;;;;17.45;3.10;;;5.10;85.70;;;;;;5021752;28;20121;-68
2022/02/01 06:44:07;;;;;;;10.43;3.05;;;5.10;85.80;;;;;;5012800;28;20046;-68
2022/02/01 06:46:34;;;;;;;15.68;3.00;;;5.10;85.80;;;;;;5029085;28;20567;-68
2022/02/01 06:49:00;;;;;;;23.15;3.83;;;5.10;85.80;;;;;;5024811;28;20037;-67
2022/02/01 06:51:27;;;;;;;22.15;4.22;;;5.10;86.00;;;;;;5016899;28;20473;-67
2022/02/01 06:53:55;;;;;;;13.30;2.85;;;5.10;86.10;;;;;;5032142;28;20033;-68
2022/02/01 06:56:32;;;;;;;13.90;3.42;;;5.10;86.20;;;;;;5029741;28;20030;-67
2022/02/01 06:59:00;;;;;;;12.55;3.13;;;5.10;86.60;;;;;;5031166;28;20061;-67
2022/02/01 07:01:27;;;;;;;11.60;3.40;;;5.10;86.30;;;;;;5011166;28;20037;-68
2022/02/01 07:03:53;;;;;;;15.80;3.92;;;5.20;86.50;;;;;;5012006;28;20636;-68
2022/02/01 07:06:19;;;;;;;15.48;3.80;;;5.20;86.60;;;;;;5023873;28;20033;-68
2022/02/01 07:08:47;;;;;;;14.27;3.70;;;5.20;86.80;;;;;;5012560;28;20496;-68
2022/02/01 07:11:13;;;;;;;24.92;5.25;;;5.20;87.00;;;;;;5025991;28;20037;-67
2022/02/01 07:13:39;;;;;;;27.35;5.75;;;5.20;87.50;;;;;;5020739;28;20052;-68
2022/02/01 07:16:07;;;;;;;16.95;5.32;;;5.20;87.90;;;;;;5025939;28;20038;-69
2022/02/01 07:18:33;;;;;;;20.20;6.38;;;5.20;88.30;;;;;;5031395;28;20516;-68
2022/02/01 07:20:59;;;;;;;18.15;5.32;;;5.20;88.50;;;;;;5029725;28;20037;-68
2022/02/01 07:23:26;;;;;;;25.40;7.05;;;5.30;88.80;;;;;;5012546;28;20032;-68
2022/02/01 07:25:56;;;;;;;18.98;6.00;;;5.30;89.10;;;;;;5015076;28;20076;-67
2022/02/01 07:28:24;;;;;;;31.30;7.97;;;5.30;89.30;;;;;;5015531;28;20026;-68
2022/02/01 07:30:50;;;;;;;26.65;8.20;;;5.30;89.70;;;;;;5030438;28;20033;-68
2022/02/01 07:33:16;;;;;;;27.08;8.13;;;5.30;90.00;;;;;;5021566;28;20374;-68
2022/02/01 07:35:42;;;;;;;23.73;7.90;;;5.30;90.10;;;;;;5012147;28;20113;-68
2022/02/01 07:38:08;;;;;;;16.83;7.13;;;5.30;90.20;;;;;;5029071;28;20029;-68
2022/02/01 07:40:35;;;;;;;24.60;10.55;;;5.30;90.20;;;;;;5013782;28;20341;-68
2022/02/01 07:43:01;;;;;;;22.15;8.75;;;5.30;90.40;;;;;;5011393;28;20037;-68
2022/02/01 07:45:30;;;;;;;23.38;8.23;;;5.30;90.50;;;;;;5010637;28;20046;-68
2022/02/01 07:48:01;;;;;;;21.90;8.95;;;5.30;90.50;;;;;;5009162;28;20121;-68
2022/02/01 07:50:27;;;;;;;14.55;7.15;;;5.40;90.60;;;;;;5012788;28;20033;-68
2022/02/01 07:52:54;;;;;;;19.48;8.98;;;5.40;90.60;;;;;;5011145;28;20583;-68
2022/02/01 07:55:20;;;;;;;17.92;8.73;;;5.40;90.60;;;;;;5020444;28;20067;-68
2022/02/01 07:57:46;;;;;;;22.70;9.40;;;5.40;90.60;;;;;;5030499;28;20049;-68
2022/02/01 08:00:13;;;;;;;16.77;9.25;;;5.40;90.60;;;;;;5018649;28;20030;-67
2022/02/01 08:02:38;;;;;;;26.83;11.10;;;5.40;90.70;;;;;;5025528;28;20117;-67
2022/02/01 08:05:05;;;;;;;22.92;11.02;;;5.40;90.70;;;;;;5011228;28;20526;-67
2022/02/01 08:07:31;;;;;;;22.00;11.45;;;5.40;90.80;;;;;;5042973;28;20061;-67
2022/02/01 08:10:00;;;;;;;27.45;12.80;;;5.40;90.80;;;;;;5018065;28;20026;-67
2022/02/01 08:20:08;;;;;;;27.23;15.38;;;5.30;91.10;;;;;;5011090;28;20552;-68
2022/02/01 08:24:59;;;;;;;23.42;15.77;;;5.30;91.30;;;;;;5011325;28;20041;-68
2022/02/01 08:27:25;;;;;;;23.13;14.23;;;5.40;91.30;;;;;;5009865;28;20060;-67
2022/02/01 08:29:51;;;;;;;27.73;15.95;;;5.40;91.30;;;;;;5018269;28;20491;-67
2022/02/01 08:32:17;;;;;;;25.77;16.13;;;5.40;91.40;;;;;;5012266;28;20034;-67
2022/02/01 08:34:42;;;;;;;34.47;17.92;;;5.40;91.40;;;;;;5014087;28;20026;-67
2022/02/01 08:37:08;;;;;;;27.48;16.38;;;5.40;91.40;;;;;;5030150;28;20519;-68
2022/02/01 08:39:34;;;;;;;23.92;14.60;;;5.50;91.40;;;;;;5024909;28;20030;-68
2022/02/01 08:42:00;;;;;;;30.13;17.77;;;5.50;91.50;;;;;;5011020;28;20026;-68
2022/02/01 08:44:30;;;;;;;33.10;18.13;;;5.50;91.50;;;;;;5013506;28;20117;-67
2022/02/01 08:46:57;;;;;;;28.40;17.13;;;5.50;91.60;;;;;;5010324;28;20046;-67
2022/02/01 08:49:23;;;;;;;32.35;20.10;;;5.50;91.70;;;;;;5009417;28;20034;-67
2022/02/01 08:51:58;;;;;;;28.08;17.50;;;5.50;91.70;;;;;;5009620;28;20109;-68
2022/02/01 08:54:27;;;;;;;28.00;17.95;;;5.50;91.70;;;;;;5013603;28;20037;-67
2022/02/01 08:59:38;;;;;;;27.25;18.38;;;5.60;91.70;;;;;;5014768;28;20044;-68
2022/02/01 09:02:05;;;;;;;26.85;18.15;;;5.60;91.70;;;;;;5010541;28;20057;-67
2022/02/01 09:04:30;;;;;;;28.42;18.80;;;5.60;91.70;;;;;;5007233;28;20022;-67
2022/02/01 09:06:57;;;;;;;33.22;19.35;;;5.60;91.80;;;;;;5009019;28;20113;-67
2022/02/01 09:09:23;;;;;;;29.25;20.13;;;5.60;91.80;;;;;;5007044;28;20030;-67
2022/02/01 09:11:50;;;;;;;29.17;18.77;;;5.60;91.80;;;;;;4997292;28;20413;-67
2022/02/01 09:14:16;;;;;;;27.52;19.77;;;5.70;92.20;;;;;;5002014;28;20068;-68
2022/02/01 09:16:42;;;;;;;25.05;18.65;;;5.70;91.90;;;;;;5007944;28;20041;-68
2022/02/01 09:19:10;;;;;;;21.55;16.67;;;5.70;92.00;;;;;;5001025;28;20060;-67
2022/02/01 09:21:37;;;;;;;26.67;17.48;;;5.70;92.00;;;;;;5006632;28;20080;-67
2022/02/01 09:24:03;;;;;;;24.67;16.83;;;5.70;92.10;;;;;;5013370;28;20029;-68
2022/02/01 09:26:29;;;;;;;23.63;16.77;;;5.70;92.30;;;;;;5013279;28;20473;-69
2022/02/01 09:28:55;;;;;;;22.08;16.25;;;5.70;92.30;;;;;;5032363;28;20080;-67
2022/02/01 09:31:21;;;;;;;20.55;15.65;;;5.70;92.30;;;;;;5003121;28;20041;-67
2022/02/01 09:33:47;;;;;;;24.20;16.50;;;5.70;92.40;;;;;;5008613;28;20481;-67
2022/02/01 09:36:13;;;;;;;23.08;16.30;;;5.80;92.40;;;;;;5001459;28;20022;-67
2022/02/01 09:38:38;;;;;;;23.52;18.00;;;5.80;92.40;;;;;;4995756;28;20030;-67
2022/02/01 09:41:04;;;;;;;25.80;18.52;;;5.80;92.40;;;;;;5007802;28;20571;-67
2022/02/01 09:43:31;;;;;;;21.75;17.83;;;5.80;92.40;;;;;;5008537;28;20042;-67
2022/02/01 09:45:59;;;;;;;20.98;15.60;;;5.80;92.40;;;;;;5007358;28;20045;-67
2022/02/01 09:48:25;;;;;;;24.17;18.15;;;5.80;92.40;;;;;;5003774;28;20241;-67
2022/02/01 09:50:51;;;;;;;25.60;18.17;;;5.90;92.50;;;;;;5014907;28;20031;-67
2022/02/01 09:53:18;;;;;;;22.38;16.55;;;5.80;92.40;;;;;;5002561;28;20053;-67
2022/02/01 09:55:45;;;;;;;20.23;15.45;;;5.90;92.40;;;;;;5009700;28;20076;-67
2022/02/01 09:58:12;;;;;;;21.13;15.80;;;5.90;92.50;;;;;;5014055;28;20443;-67
2022/02/01 10:00:46;;;;;;;21.75;16.30;;;5.90;92.50;;;;;;5011853;28;20042;-67
2022/02/01 10:03:16;;;;;;;21.08;15.50;;;6.00;92.50;;;;;;5043811;28;20817;-75
2022/02/01 10:05:43;;;;;;;17.40;14.05;;;6.00;92.60;;;;;;5014766;28;20018;-69
2022/02/01 10:08:09;;;;;;;19.02;13.85;;;6.00;92.60;;;;;;4997827;28;20080;-68
2022/02/01 10:10:35;;;;;;;17.10;12.75;;;6.00;92.60;;;;;;5011333;28;20456;-69
2022/02/01 10:13:08;;;;;;;19.38;12.88;;;6.00;92.60;;;;;;5008256;28;20540;-68
2022/02/01 10:15:34;;;;;;;13.82;11.65;;;6.10;92.60;;;;;;5009750;28;20033;-68
2022/02/01 10:18:03;;;;;;;14.65;11.88;;;6.10;92.70;;;;;;5013980;28;20026;-68
2022/02/01 10:20:41;;;;;;;17.85;11.98;;;6.20;92.70;;;;;;5045659;28;20032;-68
2022/02/01 10:23:27;;;;;;;15.20;11.63;;;6.20;92.70;;;;;;5012928;28;20034;-68
2022/02/01 10:26:07;;;;;;;12.65;9.65;;;6.20;92.70;;;;;;5008741;28;20026;-70
2022/02/01 10:29:05;;;;;;;10.90;9.13;;;6.20;92.70;;;;;;5003911;28;20067;-70
2022/02/01 10:37:01;;;;;;;10.25;8.18;;;6.30;92.80;;;;;;5011992;28;20243;-68
2022/02/01 10:39:32;;;;;;;10.90;9.05;;;6.30;92.80;;;;;;5008576;28;20164;-67
2022/02/01 10:42:08;;;;;;;10.88;8.48;;;6.40;92.80;;;;;;5007535;28;20072;-68
2022/02/01 10:44:44;;;;;;;10.60;8.10;;;6.40;92.80;;;;;;5008234;28;20042;-68
2022/02/01 10:47:32;;;;;;;10.63;8.48;;;6.40;92.80;;;;;;5008905;28;20034;-68
2022/02/01 10:50:13;;;;;;;10.77;9.10;;;6.40;92.80;;;;;;5006188;28;20036;-68
2022/02/01 10:52:50;;;;;;;10.48;8.43;;;6.50;92.80;;;;;;5022156;28;20034;-68
2022/02/01 10:55:18;;;;;;;10.43;7.95;;;6.50;92.80;;;;;;5011470;28;20022;-68
2022/02/01 10:57:44;;;;;;;9.75;8.02;;;6.50;92.80;;;;;;5011480;28;20061;-69
2022/02/01 11:00:13;;;;;;;8.90;8.00;;;6.50;92.90;;;;;;5011270;28;20109;-68
2022/02/01 11:02:43;;;;;;;8.93;8.02;;;6.50;92.90;;;;;;5010728;28;20507;-69
2022/02/01 11:05:11;;;;;;;8.80;7.40;;;6.60;93.30;;;;;;5010834;28;20400;-69
2022/02/01 11:07:38;;;;;;;10.00;7.68;;;6.60;93.00;;;;;;5010585;28;20072;-69
2022/02/01 11:10:08;;;;;;;8.70;7.78;;;6.60;92.90;;;;;;5010939;28;20033;-69
2022/02/01 11:12:36;;;;;;;9.10;7.78;;;6.70;93.00;;;;;;5011088;28;20022;-68
2022/02/01 11:15:02;;;;;;;8.70;6.85;;;6.70;92.90;;;;;;5010264;28;20026;-69
2022/02/01 11:17:40;;;;;;;7.85;7.05;;;6.70;92.90;;;;;;5011691;28;20030;-69
2022/02/01 11:20:06;;;;;;;7.95;6.50;;;6.80;92.90;;;;;;5011470;28;20018;-69
2022/02/01 11:22:37;;;;;;;7.00;5.95;;;6.80;92.90;;;;;;5011026;28;20045;-69
2022/02/01 11:25:23;;;;;;;6.53;5.82;;;6.80;92.90;;;;;;5011238;28;20022;-69
2022/02/01 11:30:41;;;;;;;6.88;5.38;;;6.90;92.90;;;;;;5010818;28;20508;-70
2022/02/01 11:33:09;;;;;;;5.80;5.13;;;6.90;92.80;;;;;;5010048;28;20038;-70
2022/02/01 11:35:35;;;;;;;5.55;4.40;;;7.00;92.80;;;;;;5023328;28;20026;-69
2022/02/01 11:38:03;;;;;;;6.38;5.15;;;7.10;92.80;;;;;;5008213;28;20030;-70
2022/02/01 11:40:37;;;;;;;5.45;4.30;;;7.10;92.80;;;;;;5010978;28;20032;-70
2022/02/01 11:43:06;;;;;;;5.00;4.10;;;7.10;92.80;;;;;;5011152;28;20045;-70
2022/02/01 11:45:35;;;;;;;5.18;4.20;;;7.20;92.90;;;;;;5009783;28;20034;-69
2022/02/01 11:48:21;;;;;;;4.88;4.28;;;7.20;92.90;;;;;;5009630;28;20026;-69
2022/02/01 11:50:53;;;;;;;4.63;4.18;;;7.20;92.90;;;;;;5010433;28;20049;-69
2022/02/01 11:53:55;;;;;;;6.05;3.95;;;7.30;93.00;;;;;;4999736;28;20198;-69
2022/02/01 11:56:31;;;;;;;3.53;3.20;;;7.30;92.90;;;;;;4999541;28;20037;-69
2022/02/01 11:59:00;;;;;;;5.10;3.05;;;7.40;93.00;;;;;;5020923;28;20421;-69
2022/02/01 12:01:37;;;;;;;3.00;2.50;;;7.40;93.00;;;;;;5014157;28;20073;-69
2022/02/01 12:04:09;;;;;;;3.60;3.30;;;7.50;93.00;;;;;;5004896;28;20484;-69
2022/02/01 12:06:54;;;;;;;4.05;3.20;;;7.50;93.00;;;;;;4999494;28;20091;-69
2022/02/01 12:09:22;;;;;;;3.30;3.00;;;7.50;93.00;;;;;;5010484;28;20033;-69
2022/02/01 12:11:54;;;;;;;3.67;3.38;;;7.60;93.00;;;;;;5009500;28;20030;-69
2022/02/01 12:14:20;;;;;;;3.40;3.10;;;7.60;93.10;;;;;;5008170;28;20104;-69
2022/02/01 12:16:51;;;;;;;4.00;3.60;;;7.70;93.10;;;;;;5010452;28;20124;-68
2022/02/01 12:19:21;;;;;;;4.20;3.53;;;7.70;93.10;;;;;;5020917;28;20033;-68
2022/02/01 12:22:08;;;;;;;3.83;3.50;;;7.70;93.10;;;;;;5010770;28;20025;-68
2022/02/01 12:24:34;;;;;;;4.80;4.03;;;7.70;93.10;;;;;;5008973;28;20033;-68
2022/02/01 12:27:01;;;;;;;4.47;3.80;;;7.80;93.30;;;;;;5010502;28;20030;-68
2022/02/01 12:29:26;;;;;;;5.47;4.40;;;7.80;93.10;;;;;;5041373;28;20037;-68
2022/02/01 12:31:55;;;;;;;6.35;4.88;;;7.80;93.10;;;;;;5013223;28;20030;-68
2022/02/01 12:34:21;;;;;;;6.55;4.50;;;7.90;93.10;;;;;;5011803;28;20465;-68
2022/02/01 12:36:50;;;;;;;8.25;5.03;;;7.90;93.10;;;;;;5008758;28;20034;-69
2022/02/01 12:39:26;;;;;;;7.15;4.60;;;8.00;93.10;;;;;;5009452;28;20109;-68
2022/02/01 12:42:11;;;;;;;9.90;5.22;;;8.00;93.10;;;;;;5012240;28;20041;-68
2022/02/01 12:47:05;;;;;;;11.82;5.53;;;8.10;93.00;;;;;;5041573;28;20469;-68
2022/02/01 12:49:41;;;;;;;12.70;5.03;;;8.20;93.10;;;;;;5008025;28;20037;-68
2022/02/01 12:52:25;;;;;;;9.90;5.18;;;8.20;93.10;;;;;;5000324;28;20132;-68
2022/02/01 12:55:01;;;;;;;11.07;5.25;;;8.30;93.00;;;;;;5007582;28;20018;-69
2022/02/01 12:57:28;;;;;;;12.55;5.03;;;8.30;93.00;;;;;;5021040;28;20030;-69
2022/02/01 12:59:58;;;;;;;16.67;6.13;;;8.40;93.00;;;;;;5010992;28;20033;-69
2022/02/01 13:02:29;;;;;;;13.40;5.03;;;8.40;92.90;;;;;;5020786;28;20418;-69
2022/02/01 13:05:09;;;;;;;13.70;5.75;;;8.40;92.90;;;;;;5006754;28;20109;-69
2022/02/01 13:16:15;;;;;;;16.67;5.53;;;8.50;92.90;;;;;;5010518;28;20042;-69
2022/02/01 13:21:23;;;;;;;12.95;4.88;;;8.60;92.90;;;;;;5009314;28;20105;-69
2022/02/01 13:23:58;;;;;;;14.05;5.57;;;8.60;92.90;;;;;;5007368;28;20034;-70
2022/02/01 13:26:35;;;;;;;17.23;5.55;;;8.60;92.90;;;;;;5008778;28;20080;-69
2022/02/01 13:29:06;;;;;;;12.95;4.50;;;8.60;92.80;;;;;;5003857;28;20385;-70
2022/02/01 13:31:33;;;;;;;13.30;5.22;;;8.60;92.80;;;;;;5008357;28;20480;-69
2022/02/01 13:34:04;;;;;;;16.00;5.18;;;8.70;92.80;;;;;;5003817;28;20037;-69
2022/02/01 13:36:31;;;;;;;15.57;5.15;;;8.60;92.80;;;;;;5008768;28;20392;-70
2022/02/01 13:39:03;;;;;;;11.07;4.55;;;8.70;92.80;;;;;;5007560;28;20058;-69
2022/02/01 13:41:33;;;;;;;12.63;4.63;;;8.70;92.80;;;;;;5010283;28;20283;-69
2022/02/01 13:44:00;;;;;;;11.63;5.10;;;8.70;92.80;;;;;;5008845;28;20509;-69
2022/02/01 13:46:32;;;;;;;11.45;4.90;;;8.80;92.80;;;;;;5007333;28;20037;-69
2022/02/01 13:49:11;;;;;;;10.95;5.60;;;8.80;92.80;;;;;;5013564;28;20037;-70
2022/02/01 13:51:47;;;;;;;11.07;4.82;;;8.80;92.80;;;;;;5004722;28;20374;-69
2022/02/01 13:54:15;;;;;;;14.77;4.55;;;8.80;92.70;;;;;;5006370;28;20038;-69
2022/02/01 13:56:52;;;;;;;13.13;4.05;;;8.80;92.70;;;;;;5010343;28;20115;-69
2022/02/01 13:59:29;;;;;;;12.65;4.47;;;8.80;92.70;;;;;;5010536;28;20030;-69
2022/02/01 14:02:05;;;;;;;9.70;4.45;;;8.80;92.70;;;;;;5001974;28;20041;-69
2022/02/01 14:04:39;;;;;;;9.23;4.03;;;8.80;92.60;;;;;;5006169;28;20060;-69
2022/02/01 14:36:26;;;;;;;11.73;3.80;;;9.00;92.40;;;;;;5008248;28;20049;-67
2022/02/01 14:39:07;;;;;;;15.27;3.70;;;9.00;92.40;;;;;;4999740;28;20034;-68
2022/02/01 14:46:43;;;;;;;13.82;3.70;;;9.00;92.30;;;;;;5009569;28;20022;-68
2022/02/01 14:49:09;;;;;;;13.57;3.15;;;9.00;92.30;;;;;;5010452;28;20524;-68
2022/02/01 14:51:35;;;;;;;16.40;3.92;;;9.00;92.20;;;;;;5026826;28;20051;-67
2022/02/01 14:54:01;;;;;;;15.32;3.70;;;9.00;92.20;;;;;;5013883;28;20467;-67
2022/02/01 14:56:33;;;;;;;11.60;3.78;;;9.00;92.20;;;;;;5002581;28;20066;-67
2022/02/01 15:07:03;;;;;;;15.20;3.88;;;9.00;92.00;;;;;;5011835;28;20096;-67
2022/02/01 15:14:57;;;;;;;15.23;3.30;;;9.00;91.90;;;;;;5009640;28;20044;-67
2022/02/01 15:17:23;;;;;;;15.20;3.30;;;9.00;91.80;;;;;;5008866;28;20042;-67
2022/02/01 15:19:49;;;;;;;12.80;3.17;;;9.00;91.70;;;;;;5012067;28;20045;-68
2022/02/01 15:22:14;;;;;;;14.63;3.55;;;9.00;91.70;;;;;;5019663;28;20049;-67
2022/02/01 15:24:40;;;;;;;15.75;3.97;;;9.10;91.60;;;;;;5006030;28;20058;-67
2022/02/01 15:27:06;;;;;;;15.98;3.22;;;9.00;91.50;;;;;;5010607;28;20481;-67